Time,TemperatureF,DewpointF,PressureIn,WindDirection,WindDirectionDegrees,WindSpeedMPH,WindSpeedGustMPH,Humidity,HourlyPrecipIn,Conditions,Clouds,dailyrainin,SoftwareType,DateUTC
2013-01-06 00:00:00,28.2,25.1,30.16,West,269,0.0,0.0,88,0.00,,,0.00,VWS V14.00,2013-01-06 05:00:00,
2013-01-06 00:01:00,28.2,25.1,30.16,West,269,0.0,0.0,88,0.00,,,0.00,VWS V14.00,2013-01-06 05:01:00,
2013-01-06 00:06:00,28.3,25.2,30.16,West,268,0.0,0.0,88,0.00,,,0.00,VWS V14.00,2013-01-06 05:06:00,
2013-01-06 00:11:00,28.3,25.2,30.16,West,269,0.0,0.0,88,0.00,,,0.00,VWS V14.00,2013-01-06 05:11:00,
2013-01-06 00:16:00,28.3,25.2,30.15,West,269,0.0,0.0,88,0.00,,,0.00,VWS V14.00,2013-01-06 05:16:00,
2013-01-06 00:21:00,28.2,25.1,30.15,West,269,0.0,0.0,88,0.00,,,0.00,VWS V14.00,2013-01-06 05:21:00,
2013-01-06 00:26:00,28.2,25.1,30.16,West,269,0.0,0.0,88,0.00,,,0.00,VWS V14.00,2013-01-06 05:26:00,
2013-01-06 00:31:00,28.4,25.3,30.15,West,269,0.0,0.0,88,0.00,,,0.00,VWS V14.00,2013-01-06 05:31:00,
2013-01-06 00:36:00,28.6,25.5,30.15,West,269,0.0,0.0,88,0.00,,,0.00,VWS V14.00,2013-01-06 05:36:00,
2013-01-06 00:41:00,28.6,25.5,30.16,West,269,0.0,0.0,88,0.00,,,0.00,VWS V14.00,2013-01-06 05:41:00,
2013-01-06 00:46:00,28.7,25.6,30.16,West,269,1.0,3.0,88,0.00,,,0.00,VWS V14.00,2013-01-06 05:46:00,
2013-01-06 00:51:00,29.0,25.6,30.16,West,269,0.0,3.0,87,0.00,,,0.00,VWS V14.00,2013-01-06 05:51:00,
2013-01-06 00:56:00,29.0,25.6,30.17,West,269,0.0,3.0,87,0.00,,,0.00,VWS V14.00,2013-01-06 05:56:00,
2013-01-06 01:01:00,29.1,25.7,30.18,West,268,0.0,0.0,87,0.00,,,0.00,VWS V14.00,2013-01-06 06:01:00,
2013-01-06 01:06:00,29.1,25.7,30.18,West,269,0.0,0.0,87,0.00,,,0.00,VWS V14.00,2013-01-06 06:06:00,
2013-01-06 01:11:00,29.3,25.9,30.18,West,269,0.0,1.0,87,0.00,,,0.00,VWS V14.00,2013-01-06 06:11:00,
2013-01-06 01:16:00,29.3,25.9,30.18,West,268,0.0,1.0,87,0.00,,,0.00,VWS V14.00,2013-01-06 06:16:00,
2013-01-06 01:21:00,29.3,25.9,30.19,West,268,0.0,1.0,87,0.00,,,0.00,VWS V14.00,2013-01-06 06:21:00,
2013-01-06 01:26:00,29.4,26.0,30.19,West,268,0.0,1.0,87,0.00,,,0.00,VWS V14.00,2013-01-06 06:26:00,
2013-01-06 01:31:00,29.5,26.1,30.17,West,269,0.0,0.0,87,0.00,,,0.00,VWS V14.00,2013-01-06 06:31:00,
2013-01-06 01:36:00,29.5,26.1,30.18,West,269,1.0,1.0,87,0.00,,,0.00,VWS V14.00,2013-01-06 06:36:00,
2013-01-06 01:41:00,29.6,26.2,30.17,West,268,0.0,2.0,87,0.00,,,0.00,VWS V14.00,2013-01-06 06:41:00,
2013-01-06 01:46:00,29.7,26.3,30.17,West,269,0.0,2.0,87,0.00,,,0.00,VWS V14.00,2013-01-06 06:46:00,
2013-01-06 01:51:00,29.8,26.1,30.17,West,268,0.0,2.0,86,0.00,,,0.00,VWS V14.00,2013-01-06 06:51:00,
2013-01-06 01:56:00,30.0,26.0,30.17,West,269,0.0,3.0,85,0.00,,,0.00,VWS V14.00,2013-01-06 06:56:00,
2013-01-06 02:01:00,30.0,25.8,30.17,West,268,0.0,0.0,84,0.00,,,0.00,VWS V14.00,2013-01-06 07:01:00,
2013-01-06 02:06:00,30.1,25.9,30.17,West,269,0.0,1.0,84,0.00,,,0.00,VWS V14.00,2013-01-06 07:06:00,
2013-01-06 02:11:00,30.2,25.7,30.18,West,269,0.0,2.0,83,0.00,,,0.00,VWS V14.00,2013-01-06 07:11:00,
2013-01-06 02:16:00,30.2,25.7,30.17,West,269,0.0,2.0,83,0.00,,,0.00,VWS V14.00,2013-01-06 07:16:00,
2013-01-06 02:21:00,30.3,25.8,30.18,West,268,0.0,2.0,83,0.00,,,0.00,VWS V14.00,2013-01-06 07:21:00,
2013-01-06 02:26:00,30.3,25.8,30.17,West,269,0.0,2.0,83,0.00,,,0.00,VWS V14.00,2013-01-06 07:26:00,
2013-01-06 02:31:00,30.4,25.6,30.16,West,269,0.0,0.0,82,0.00,,,0.00,VWS V14.00,2013-01-06 07:31:00,
2013-01-06 02:36:00,30.5,25.7,30.16,West,269,0.0,0.0,82,0.00,,,0.00,VWS V14.00,2013-01-06 07:36:00,
2013-01-06 02:41:00,30.6,25.8,30.15,West,269,2.0,3.0,82,0.00,,,0.00,VWS V14.00,2013-01-06 07:41:00,
2013-01-06 02:46:00,30.6,25.8,30.15,West,268,0.0,3.0,82,0.00,,,0.00,VWS V14.00,2013-01-06 07:46:00,
2013-01-06 02:51:00,30.6,25.8,30.15,West,268,0.0,3.0,82,0.00,,,0.00,VWS V14.00,2013-01-06 07:51:00,
2013-01-06 02:56:00,30.7,25.9,30.16,West,269,0.0,3.0,82,0.00,,,0.00,VWS V14.00,2013-01-06 07:56:00,
2013-01-06 03:01:00,30.7,25.9,30.17,West,269,0.0,0.0,82,0.00,,,0.00,VWS V14.00,2013-01-06 08:01:00,
2013-01-06 03:06:00,30.7,25.9,30.16,West,269,0.0,0.0,82,0.00,,,0.00,VWS V14.00,2013-01-06 08:06:00,
2013-01-06 03:11:00,30.6,26.1,30.16,West,269,0.0,0.0,83,0.00,,,0.00,VWS V14.00,2013-01-06 08:11:00,
2013-01-06 03:16:00,30.6,26.1,30.14,West,268,0.0,0.0,83,0.00,,,0.00,VWS V14.00,2013-01-06 08:16:00,
2013-01-06 03:21:00,30.6,26.1,30.14,West,269,0.0,0.0,83,0.00,,,0.00,VWS V14.00,2013-01-06 08:21:00,
2013-01-06 03:26:00,30.7,26.2,30.14,West,268,0.0,0.0,83,0.00,,,0.00,VWS V14.00,2013-01-06 08:26:00,
2013-01-06 03:31:00,30.6,26.1,30.13,West,269,0.0,0.0,83,0.00,,,0.00,VWS V14.00,2013-01-06 08:31:00,
2013-01-06 03:39:00,30.6,26.1,30.14,West,269,0.0,0.0,83,0.00,,,0.00,VWS V14.00,2013-01-06 08:39:00,
2013-01-06 03:44:00,30.8,26.3,30.12,West,268,0.0,2.0,83,0.00,,,0.00,VWS V14.00,2013-01-06 08:44:00,
2013-01-06 03:49:00,30.8,26.3,30.12,West,269,0.0,2.0,83,0.00,,,0.00,VWS V14.00,2013-01-06 08:49:00,
2013-01-06 03:54:00,30.9,26.4,30.12,West,269,0.0,2.0,83,0.00,,,0.00,VWS V14.00,2013-01-06 08:54:00,
2013-01-06 03:59:00,31.1,26.8,30.12,WSW,257,2.0,6.0,84,0.00,,,0.00,VWS V14.00,2013-01-06 08:59:00,
2013-01-06 04:04:00,31.4,26.8,30.12,WSW,256,1.0,3.0,83,0.00,,,0.00,VWS V14.00,2013-01-06 09:04:00,
2013-01-06 04:09:00,32.3,28.0,30.12,WSW,256,0.0,5.0,84,0.00,,,0.00,VWS V14.00,2013-01-06 09:09:00,
2013-01-06 04:14:00,33.8,29.8,30.12,SW,215,0.0,12.0,85,0.00,,,0.00,VWS V14.00,2013-01-06 09:14:00,
2013-01-06 04:19:00,35.1,30.8,30.12,SW,234,0.0,12.0,84,0.00,,,0.00,VWS V14.00,2013-01-06 09:19:00,
2013-01-06 04:24:00,35.9,31.8,30.13,WSW,244,5.0,19.0,85,0.00,,,0.00,VWS V14.00,2013-01-06 09:24:00,
2013-01-06 04:29:00,36.1,32.3,30.12,SW,225,7.0,19.0,86,0.00,,,0.00,VWS V14.00,2013-01-06 09:29:00,
2013-01-06 04:34:00,36.1,32.6,30.11,SW,234,7.0,14.0,87,0.00,,,0.00,VWS V14.00,2013-01-06 09:34:00,
2013-01-06 04:39:00,36.1,32.9,30.11,SW,228,0.0,18.0,88,0.00,,,0.00,VWS V14.00,2013-01-06 09:39:00,
2013-01-06 04:43:00,35.9,33.0,30.11,SW,230,7.0,18.0,89,0.00,,,0.00,VWS V14.00,2013-01-06 09:43:00,
2013-01-06 04:48:00,35.7,33.1,30.10,SW,223,0.0,18.0,90,0.00,,,0.00,VWS V14.00,2013-01-06 09:48:00,
2013-01-06 04:53:00,35.5,32.9,30.10,SW,224,0.0,18.0,90,0.00,,,0.00,VWS V14.00,2013-01-06 09:53:00,
2013-01-06 04:58:00,35.3,32.9,30.10,SW,227,5.0,18.0,91,0.00,,,0.00,VWS V14.00,2013-01-06 09:58:00,
2013-01-06 05:03:00,35.3,32.9,30.09,SW,232,3.0,7.0,91,0.00,,,0.00,VWS V14.00,2013-01-06 10:03:00,
2013-01-06 05:08:00,35.4,33.3,30.09,SW,232,0.0,7.0,92,0.00,,,0.00,VWS V14.00,2013-01-06 10:08:00,
2013-01-06 05:13:00,35.6,33.5,30.09,SW,227,5.0,12.0,92,0.00,,,0.00,VWS V14.00,2013-01-06 10:13:00,
2013-01-06 05:18:00,35.7,33.6,30.09,SW,222,0.0,12.0,92,0.00,,,0.00,VWS V14.00,2013-01-06 10:18:00,
2013-01-06 05:23:00,35.8,33.7,30.09,SW,225,5.0,12.0,92,0.00,,,0.00,VWS V14.00,2013-01-06 10:23:00,
2013-01-06 05:28:00,35.9,33.5,30.09,SW,224,2.0,12.0,91,0.00,,,0.00,VWS V14.00,2013-01-06 10:28:00,
2013-01-06 05:33:00,36.1,33.5,30.08,SW,234,7.0,11.0,90,0.00,,,0.00,VWS V14.00,2013-01-06 10:33:00,
2013-01-06 05:38:00,36.5,33.3,30.08,WSW,245,10.0,12.0,88,0.00,,,0.00,VWS V14.00,2013-01-06 10:38:00,
2013-01-06 05:43:00,36.8,33.0,30.08,SW,226,3.0,12.0,86,0.00,,,0.00,VWS V14.00,2013-01-06 10:43:00,
2013-01-06 05:48:00,37.0,32.6,30.09,SW,226,9.0,14.0,84,0.00,,,0.00,VWS V14.00,2013-01-06 10:48:00,
2013-01-06 05:53:00,37.2,32.5,30.09,SW,217,16.0,16.0,83,0.00,,,0.00,VWS V14.00,2013-01-06 10:53:00,
2013-01-06 05:58:00,37.2,32.2,30.08,SSW,205,11.0,16.0,82,0.00,,,0.00,VWS V14.00,2013-01-06 10:58:00,
2013-01-06 06:03:00,37.4,32.1,30.08,SW,236,11.0,15.0,81,0.00,,,0.00,VWS V14.00,2013-01-06 11:03:00,
2013-01-06 06:08:00,37.4,32.1,30.08,SW,219,10.0,15.0,81,0.00,,,0.00,VWS V14.00,2013-01-06 11:08:00,
2013-01-06 06:13:00,37.3,32.3,30.08,SW,225,9.0,15.0,82,0.00,,,0.00,VWS V14.00,2013-01-06 11:13:00,
2013-01-06 06:18:00,37.2,32.8,30.08,SW,234,15.0,16.0,84,0.00,,,0.00,VWS V14.00,2013-01-06 11:18:00,
2013-01-06 06:23:00,37.1,32.7,30.08,SW,217,8.0,18.0,84,0.00,,,0.00,VWS V14.00,2013-01-06 11:23:00,
2013-01-06 06:28:00,37.1,32.4,30.08,SSW,211,14.0,21.0,83,0.00,,,0.00,VWS V14.00,2013-01-06 11:28:00,
2013-01-06 06:33:00,37.2,32.5,30.08,SW,227,11.0,16.0,83,0.00,,,0.00,VWS V14.00,2013-01-06 11:33:00,
2013-01-06 06:38:00,37.3,32.3,30.07,WSW,243,13.0,18.0,82,0.00,,,0.00,VWS V14.00,2013-01-06 11:38:00,
2013-01-06 06:43:00,37.3,32.3,30.07,SW,227,17.0,22.0,82,0.00,,,0.00,VWS V14.00,2013-01-06 11:43:00,
2013-01-06 06:48:00,37.0,32.6,30.08,SSW,211,14.0,22.0,84,0.00,,,0.00,VWS V14.00,2013-01-06 11:48:00,
2013-01-06 06:53:00,36.7,32.6,30.08,SW,230,12.0,24.0,85,0.00,,,0.00,VWS V14.00,2013-01-06 11:53:00,
2013-01-06 06:58:00,36.6,32.5,30.08,SSW,205,19.0,24.0,85,0.00,,,0.00,VWS V14.00,2013-01-06 11:58:00,
2013-01-06 07:03:00,36.5,32.4,30.08,SW,227,10.0,23.0,85,0.00,,,0.00,VWS V14.00,2013-01-06 12:03:00,
2013-01-06 07:08:00,36.7,32.6,30.08,SW,225,14.0,23.0,85,0.00,,,0.00,VWS V14.00,2013-01-06 12:08:00,
2013-01-06 07:13:00,36.8,32.7,30.08,SW,223,9.0,23.0,85,0.00,,,0.00,VWS V14.00,2013-01-06 12:13:00,
2013-01-06 07:18:00,36.9,33.1,30.07,SW,223,8.0,23.0,86,0.00,,,0.00,VWS V14.00,2013-01-06 12:18:00,
2013-01-06 07:23:00,36.9,33.1,30.07,WSW,247,12.0,23.0,86,0.00,,,0.00,VWS V14.00,2013-01-06 12:23:00,
2013-01-06 07:28:00,36.9,33.1,30.08,SW,235,7.0,23.0,86,0.00,,,0.00,VWS V14.00,2013-01-06 12:28:00,
2013-01-06 07:33:00,37.0,32.9,30.08,SW,222,7.0,14.0,85,0.00,,,0.00,VWS V14.00,2013-01-06 12:33:00,
2013-01-06 07:38:00,37.2,33.4,30.08,SW,232,9.0,16.0,86,0.00,,,0.00,VWS V14.00,2013-01-06 12:38:00,
2013-01-06 07:43:00,37.2,33.7,30.08,SW,234,10.0,16.0,87,0.00,,,0.00,VWS V14.00,2013-01-06 12:43:00,
2013-01-06 07:48:00,37.3,33.5,30.08,SW,234,9.0,19.0,86,0.00,,,0.00,VWS V14.00,2013-01-06 12:48:00,
2013-01-06 07:53:00,37.4,33.9,30.07,SW,224,13.0,19.0,87,0.00,,,0.00,VWS V14.00,2013-01-06 12:53:00,
2013-01-06 07:58:00,37.3,33.8,30.07,SW,223,8.0,19.0,87,0.00,,,0.00,VWS V14.00,2013-01-06 12:58:00,
2013-01-06 08:03:00,37.3,33.8,30.07,SW,227,7.0,17.0,87,0.00,,,0.00,VWS V14.00,2013-01-06 13:03:00,
2013-01-06 08:08:00,37.4,33.9,30.07,SW,232,10.0,17.0,87,0.00,,,0.00,VWS V14.00,2013-01-06 13:08:00,
2013-01-06 08:13:00,37.4,34.2,30.07,WSW,249,10.0,17.0,88,0.00,,,0.00,VWS V14.00,2013-01-06 13:13:00,
2013-01-06 08:18:00,37.5,34.3,30.07,SSW,209,10.0,18.0,88,0.00,,,0.00,VWS V14.00,2013-01-06 13:18:00,
2013-01-06 08:23:00,37.5,34.3,30.07,SW,236,9.0,18.0,88,0.00,,,0.00,VWS V14.00,2013-01-06 13:23:00,
2013-01-06 08:28:00,37.6,34.7,30.07,WSW,241,12.0,18.0,89,0.00,,,0.00,VWS V14.00,2013-01-06 13:28:00,
2013-01-06 08:52:00,37.8,35.1,30.07,SW,235,12.0,12.0,90,0.00,,,0.00,VWS V14.00,2013-01-06 13:52:00,
2013-01-06 09:00:00,37.9,35.2,30.07,SW,236,10.0,10.0,90,0.00,,,0.00,VWS V14.00,2013-01-06 14:00:00,
2013-01-06 09:05:00,38.0,35.3,30.06,SSW,213,16.0,18.0,90,0.00,,,0.00,VWS V14.00,2013-01-06 14:05:00,
2013-01-06 09:09:00,38.1,35.7,30.06,SW,234,10.0,18.0,91,0.00,,,0.00,VWS V14.00,2013-01-06 14:09:00,
2013-01-06 09:14:00,38.2,35.8,30.06,SW,229,13.0,19.0,91,0.00,,,0.00,VWS V14.00,2013-01-06 14:14:00,
2013-01-06 09:19:00,38.5,36.1,30.06,SW,229,15.0,19.0,91,0.00,,,0.00,VWS V14.00,2013-01-06 14:19:00,
2013-01-06 09:24:00,38.7,36.3,30.06,SW,229,13.0,20.0,91,0.00,,,0.00,VWS V14.00,2013-01-06 14:24:00,
2013-01-06 09:29:00,38.9,36.5,30.05,WSW,253,13.0,20.0,91,0.00,,,0.00,VWS V14.00,2013-01-06 14:29:00,
2013-01-06 09:34:00,39.2,36.8,30.06,SW,222,11.0,17.0,91,0.00,,,0.00,VWS V14.00,2013-01-06 14:34:00,
2013-01-06 09:39:00,39.2,36.8,30.06,SW,219,7.0,17.0,91,0.00,,,0.00,VWS V14.00,2013-01-06 14:39:00,
2013-01-06 09:44:00,39.0,36.6,30.05,SW,227,10.0,17.0,91,0.00,,,0.00,VWS V14.00,2013-01-06 14:44:00,
2013-01-06 09:49:00,39.0,36.6,30.05,SW,227,8.0,19.0,91,0.00,,,0.00,VWS V14.00,2013-01-06 14:49:00,
2013-01-06 09:54:00,39.3,36.9,30.05,SW,225,11.0,19.0,91,0.00,,,0.00,VWS V14.00,2013-01-06 14:54:00,
2013-01-06 09:59:00,39.5,37.1,30.05,SW,236,10.0,19.0,91,0.00,,,0.00,VWS V14.00,2013-01-06 14:59:00,
2013-01-06 10:04:00,39.6,37.2,30.05,WSW,245,14.0,24.0,91,0.00,,,0.00,VWS V14.00,2013-01-06 15:04:00,
2013-01-06 10:09:00,39.5,36.8,30.05,SW,234,5.0,24.0,90,0.00,,,0.00,VWS V14.00,2013-01-06 15:09:00,
2013-01-06 10:14:00,39.5,37.1,30.05,WSW,241,12.0,24.0,91,0.00,,,0.00,VWS V14.00,2013-01-06 15:14:00,
2013-01-06 10:19:00,39.6,37.2,30.05,SW,226,9.0,24.0,91,0.00,,,0.00,VWS V14.00,2013-01-06 15:19:00,
2013-01-06 10:24:00,39.7,37.3,30.05,WSW,246,7.0,24.0,91,0.00,,,0.00,VWS V14.00,2013-01-06 15:24:00,
2013-01-06 10:29:00,39.4,36.7,30.04,SW,233,6.0,24.0,90,0.00,,,0.00,VWS V14.00,2013-01-06 15:29:00,
2013-01-06 10:34:00,39.4,36.7,30.04,WSW,248,13.0,15.0,90,0.00,,,0.00,VWS V14.00,2013-01-06 15:34:00,
2013-01-06 10:39:00,39.4,36.7,30.03,SW,227,11.0,18.0,90,0.00,,,0.00,VWS V14.00,2013-01-06 15:39:00,
2013-01-06 10:44:00,39.7,37.0,30.03,WSW,244,14.0,18.0,90,0.00,,,0.00,VWS V14.00,2013-01-06 15:44:00,
2013-01-06 10:49:00,39.8,37.1,30.03,SW,228,0.0,18.0,90,0.00,,,0.00,VWS V14.00,2013-01-06 15:49:00,
2013-01-06 10:54:00,39.7,37.0,30.02,WSW,240,12.0,18.0,90,0.00,,,0.00,VWS V14.00,2013-01-06 15:54:00,
2013-01-06 10:59:00,39.5,36.5,30.02,SW,229,11.0,18.0,89,0.00,,,0.00,VWS V14.00,2013-01-06 15:59:00,
2013-01-06 11:04:00,39.4,36.4,30.02,WSW,240,9.0,13.0,89,0.00,,,0.00,VWS V14.00,2013-01-06 16:04:00,
2013-01-06 11:09:00,39.4,36.4,30.01,SW,224,12.0,15.0,89,0.00,,,0.00,VWS V14.00,2013-01-06 16:09:00,
2013-01-06 11:14:00,39.4,36.2,30.01,SW,222,6.0,19.0,88,0.00,,,0.00,VWS V14.00,2013-01-06 16:14:00,
2013-01-06 11:19:00,39.4,35.9,30.00,WSW,238,9.0,19.0,87,0.00,,,0.00,VWS V14.00,2013-01-06 16:19:00,
2013-01-06 11:24:00,39.6,36.3,30.00,SW,232,13.0,19.0,88,0.00,,,0.00,VWS V14.00,2013-01-06 16:24:00,
2013-01-06 11:29:00,39.8,36.2,30.00,WSW,242,6.0,19.0,87,0.00,,,0.00,VWS V14.00,2013-01-06 16:29:00,
2013-01-06 11:34:00,39.8,36.0,30.00,SW,227,11.0,15.0,86,0.00,,,0.00,VWS V14.00,2013-01-06 16:34:00,
2013-01-06 11:39:00,39.9,36.3,29.99,SW,236,10.0,17.0,87,0.00,,,0.00,VWS V14.00,2013-01-06 16:39:00,
2013-01-06 11:44:00,40.0,36.5,29.99,SW,233,5.0,17.0,87,0.00,,,0.00,VWS V14.00,2013-01-06 16:44:00,
2013-01-06 11:49:00,40.5,36.9,29.99,SW,231,0.0,17.0,87,0.00,,,0.00,VWS V14.00,2013-01-06 16:49:00,
2013-01-06 11:54:00,40.8,36.7,29.99,SW,232,10.0,17.0,85,0.00,,,0.00,VWS V14.00,2013-01-06 16:54:00,
2013-01-06 11:59:00,40.7,36.5,29.98,WSW,242,10.0,17.0,85,0.00,,,0.00,VWS V14.00,2013-01-06 16:59:00,
2013-01-06 12:04:00,40.3,35.9,29.98,SW,221,9.0,17.0,84,0.00,,,0.00,VWS V14.00,2013-01-06 17:04:00,
2013-01-06 12:09:00,40.4,36.5,29.97,SW,225,7.0,17.0,86,0.00,,,0.00,VWS V14.00,2013-01-06 17:09:00,
2013-01-06 12:14:00,40.6,36.8,29.97,WSW,238,10.0,17.0,86,0.00,,,0.00,VWS V14.00,2013-01-06 17:14:00,
2013-01-06 12:19:00,40.3,36.2,29.97,SW,232,7.0,17.0,85,0.00,,,0.00,VWS V14.00,2013-01-06 17:19:00,
2013-01-06 12:24:00,40.5,36.7,29.97,SW,219,14.0,17.0,86,0.00,,,0.00,VWS V14.00,2013-01-06 17:24:00,
2013-01-06 12:29:00,40.9,37.0,29.96,SW,233,7.0,17.0,86,0.00,,,0.00,VWS V14.00,2013-01-06 17:29:00,
2013-01-06 12:34:00,40.7,36.5,29.96,SW,233,0.0,14.0,85,0.00,,,0.00,VWS V14.00,2013-01-06 17:34:00,
2013-01-06 12:39:00,40.2,36.1,29.96,SW,234,8.0,15.0,85,0.00,,,0.00,VWS V14.00,2013-01-06 17:39:00,
2013-01-06 12:44:00,40.8,36.9,29.96,SW,236,14.0,15.0,86,0.00,,,0.00,VWS V14.00,2013-01-06 17:44:00,
2013-01-06 12:49:00,41.1,37.2,29.96,SW,229,4.0,15.0,86,0.00,,,0.00,VWS V14.00,2013-01-06 17:49:00,
2013-01-06 12:54:00,41.1,36.6,29.96,SW,233,6.0,17.0,84,0.00,,,0.00,VWS V14.00,2013-01-06 17:54:00,
2013-01-06 12:59:00,40.7,36.2,29.96,SW,229,8.0,17.0,84,0.00,,,0.00,VWS V14.00,2013-01-06 17:59:00,
2013-01-06 13:04:00,40.9,36.8,29.95,SW,219,11.0,13.0,85,0.00,,,0.00,VWS V14.00,2013-01-06 18:04:00,
2013-01-06 13:09:00,40.8,36.7,29.95,SW,234,1.0,16.0,85,0.00,,,0.00,VWS V14.00,2013-01-06 18:09:00,
2013-01-06 13:14:00,41.1,36.9,29.95,SW,228,0.0,16.0,85,0.00,,,0.00,VWS V14.00,2013-01-06 18:14:00,
2013-01-06 13:19:00,41.2,37.0,29.95,WSW,237,0.0,16.0,85,0.00,,,0.00,VWS V14.00,2013-01-06 18:19:00,
2013-01-06 13:24:00,41.2,36.7,29.95,SW,233,0.0,16.0,84,0.00,,,0.00,VWS V14.00,2013-01-06 18:24:00,
2013-01-06 13:29:00,41.6,37.1,29.95,SW,230,3.0,16.0,84,0.00,,,0.00,VWS V14.00,2013-01-06 18:29:00,
2013-01-06 13:34:00,41.8,37.3,29.95,WSW,240,7.0,7.0,84,0.00,,,0.00,VWS V14.00,2013-01-06 18:34:00,
2013-01-06 13:39:00,41.7,36.6,29.95,WSW,237,5.0,19.0,82,0.00,,,0.00,VWS V14.00,2013-01-06 18:39:00,
2013-01-06 13:44:00,41.4,36.6,29.95,WSW,238,9.0,19.0,83,0.00,,,0.00,VWS V14.00,2013-01-06 18:44:00,
2013-01-06 13:49:00,41.3,36.5,29.95,SW,228,4.0,19.0,83,0.00,,,0.00,VWS V14.00,2013-01-06 18:49:00,